createdAt,value
2022-09-30T00:00:03.723Z,20.90
2022-09-30T00:05:11.952Z,20.90
2022-09-30T00:10:17.266Z,21.00
2022-09-30T00:15:20.606Z,20.90
2022-09-30T00:20:23.872Z,21.00
2022-09-30T00:25:28.445Z,20.90
2022-09-30T00:30:31.677Z,20.90
2022-09-30T00:35:34.910Z,20.90
2022-09-30T00:40:40.961Z,20.90
2022-09-30T00:45:50.736Z,20.90
2022-09-30T00:50:55.645Z,20.90
2022-09-30T00:56:04.656Z,20.90
2022-09-30T01:01:08.218Z,20.90
2022-09-30T01:06:11.552Z,20.90
2022-09-30T01:11:16.433Z,20.90
2022-09-30T01:16:37.099Z,20.80
2022-09-30T01:22:08.105Z,20.80
2022-09-30T01:27:32.401Z,20.80
2022-09-30T01:33:04.905Z,20.80
2022-09-30T01:38:15.287Z,20.80
2022-09-30T01:43:29.792Z,20.80
2022-09-30T01:48:40.468Z,20.80
2022-09-30T01:53:51.351Z,20.70
2022-09-30T01:59:00.171Z,20.70
2022-09-30T02:04:09.921Z,20.70
2022-09-30T02:09:16.039Z,20.70
2022-09-30T02:14:24.971Z,20.70
2022-09-30T02:19:34.764Z,20.70
2022-09-30T02:24:39.007Z,20.60
2022-09-30T02:29:47.962Z,20.60
2022-09-30T02:34:58.804Z,20.60
2022-09-30T02:40:08.215Z,20.60
2022-09-30T02:45:16.537Z,20.60
2022-09-30T02:50:31.450Z,20.60
2022-09-30T02:55:41.947Z,20.50
2022-09-30T03:00:45.517Z,20.50
2022-09-30T03:05:52.368Z,20.50
2022-09-30T03:10:55.984Z,20.50
2022-09-30T03:16:15.214Z,20.40
2022-09-30T03:21:44.790Z,20.40
2022-09-30T03:26:56.264Z,20.40
2022-09-30T03:32:09.648Z,20.40
2022-09-30T03:37:25.002Z,20.40
2022-09-30T03:42:35.315Z,20.40
2022-09-30T03:47:45.654Z,20.30
2022-09-30T03:52:52.374Z,20.30
2022-09-30T03:57:56.091Z,20.30
2022-09-30T04:02:59.321Z,20.30
2022-09-30T04:08:04.077Z,20.30
2022-09-30T04:13:07.292Z,20.30
2022-09-30T04:18:10.616Z,20.20
2022-09-30T04:23:15.555Z,20.20
2022-09-30T04:28:18.849Z,20.20
2022-09-30T04:33:22.087Z,20.20
2022-09-30T04:38:27.698Z,20.10
2022-09-30T04:43:31.060Z,20.10
2022-09-30T04:48:34.407Z,20.00
2022-09-30T04:53:39.966Z,20.00
2022-09-30T04:58:43.316Z,20.00
2022-09-30T05:03:47.283Z,20.00
2022-09-30T05:08:52.257Z,20.00
2022-09-30T05:13:55.729Z,20.00
2022-09-30T05:18:58.958Z,20.00
2022-09-30T05:24:03.887Z,19.90
2022-09-30T05:29:07.249Z,19.90
2022-09-30T05:34:10.807Z,19.90
2022-09-30T05:39:15.988Z,19.90
2022-09-30T05:44:19.390Z,19.90
2022-09-30T05:49:22.742Z,19.90
2022-09-30T05:54:27.624Z,19.90
2022-09-30T05:59:30.868Z,20.00
2022-09-30T06:04:34.118Z,20.20
2022-09-30T06:09:38.795Z,20.30
2022-09-30T06:14:42.042Z,20.40
2022-09-30T06:19:45.358Z,20.50
2022-09-30T06:24:54.253Z,20.50
2022-09-30T06:29:58.431Z,20.50
2022-09-30T06:35:03.861Z,20.50
2022-09-30T06:40:09.980Z,20.50
2022-09-30T06:45:24.110Z,20.40
2022-09-30T06:50:32.983Z,20.30
2022-09-30T06:55:39.231Z,20.20
2022-09-30T07:00:42.583Z,20.20
2022-09-30T07:05:45.817Z,20.10
2022-09-30T07:10:50.458Z,20.10
2022-09-30T07:15:56.701Z,20.00
2022-09-30T07:20:59.933Z,20.00
2022-09-30T07:26:05.961Z,19.90
2022-09-30T07:31:31.931Z,19.90
2022-09-30T07:36:35.719Z,19.80
2022-09-30T07:41:41.627Z,19.80
2022-09-30T07:46:46.338Z,19.70
2022-09-30T07:51:49.565Z,19.70
2022-09-30T07:57:10.991Z,19.70
2022-09-30T08:02:18.393Z,19.70
2022-09-30T08:07:21.693Z,19.60
2022-09-30T08:12:26.377Z,19.70
2022-09-30T08:17:29.599Z,19.60
2022-09-30T08:22:33.055Z,19.70
2022-09-30T08:27:37.955Z,19.70
2022-09-30T08:32:41.317Z,19.80
2022-09-30T08:37:44.615Z,19.80
2022-09-30T08:43:09.128Z,19.80
2022-09-30T08:48:36.131Z,19.80
2022-09-30T08:53:43.006Z,19.80
2022-09-30T08:58:51.199Z,19.80
2022-09-30T09:03:55.188Z,19.70
2022-09-30T09:09:26.437Z,19.70
2022-09-30T09:14:43.432Z,19.70
2022-09-30T09:19:55.605Z,19.60
2022-09-30T09:25:01.016Z,19.70
2022-09-30T09:30:08.021Z,19.70
2022-09-30T09:35:16.456Z,19.80
2022-09-30T09:40:27.866Z,19.80
2022-09-30T09:45:39.895Z,19.90
2022-09-30T09:50:54.668Z,20.00
2022-09-30T09:56:00.326Z,20.00
2022-09-30T10:01:32.152Z,20.10
2022-09-30T10:06:45.650Z,20.10
2022-09-30T10:11:48.921Z,20.20
2022-09-30T10:17:00.567Z,20.30
2022-09-30T10:22:19.572Z,20.40
2022-09-30T10:27:34.967Z,20.40
2022-09-30T10:32:39.632Z,20.50
2022-09-30T10:37:52.628Z,20.60
2022-09-30T10:42:56.862Z,20.70
2022-09-30T10:48:07.022Z,20.80
2022-09-30T10:53:18.364Z,20.80
2022-09-30T10:58:35.462Z,20.80
2022-09-30T11:03:50.272Z,20.80
2022-09-30T11:08:59.352Z,20.80
2022-09-30T11:14:16.957Z,20.80
2022-09-30T11:19:28.794Z,20.80
2022-09-30T11:24:40.485Z,20.80
2022-09-30T11:29:57.332Z,20.80
2022-09-30T11:35:09.708Z,20.90
2022-09-30T11:40:31.838Z,21.00
2022-09-30T11:45:47.093Z,21.40
2022-09-30T11:51:03.669Z,22.00
2022-09-30T11:56:22.335Z,22.60
2022-09-30T12:01:32.756Z,23.20
2022-09-30T12:06:41.846Z,23.80
2022-09-30T12:11:52.298Z,24.30
2022-09-30T12:16:57.868Z,24.80
2022-09-30T12:22:07.571Z,25.20
2022-09-30T12:27:18.816Z,25.60
2022-09-30T12:33:04.230Z,25.80
2022-09-30T12:38:28.251Z,26.10
2022-09-30T12:44:00.443Z,26.40
2022-09-30T12:49:07.828Z,26.50
2022-09-30T12:54:19.396Z,26.60
2022-09-30T12:59:29.863Z,26.80
2022-09-30T13:04:36.003Z,27.00
2022-09-30T13:09:58.744Z,27.10
2022-09-30T13:15:25.278Z,27.00
2022-09-30T13:20:56.782Z,27.00
2022-09-30T13:26:02.081Z,26.90
2022-09-30T13:31:19.288Z,26.70
2022-09-30T13:36:31.446Z,26.60
2022-09-30T13:41:38.646Z,26.40
2022-09-30T13:46:50.047Z,26.30
2022-09-30T13:51:54.997Z,26.10
2022-09-30T13:57:01.009Z,25.90
2022-09-30T14:02:37.524Z,25.80
2022-09-30T14:07:51.555Z,25.60
2022-09-30T14:13:11.774Z,25.40
2022-09-30T14:18:46.473Z,25.30
2022-09-30T14:23:58.703Z,25.10
2022-09-30T14:29:12.438Z,25.00
2022-09-30T14:34:17.142Z,24.90
2022-09-30T14:39:23.688Z,24.70
2022-09-30T14:44:31.925Z,24.60
2022-09-30T14:49:37.552Z,24.60
2022-09-30T14:54:48.683Z,24.40
2022-09-30T14:59:53.312Z,24.30
2022-09-30T15:05:01.285Z,24.20
2022-09-30T15:10:06.019Z,24.20
2022-09-30T15:15:25.848Z,24.10
2022-09-30T15:20:32.355Z,24.00
2022-09-30T15:25:36.821Z,23.90
2022-09-30T15:30:43.190Z,23.90
2022-09-30T15:35:46.939Z,23.80
2022-09-30T15:41:03.307Z,23.70
2022-09-30T15:46:27.491Z,23.60
2022-09-30T15:51:34.781Z,23.50
2022-09-30T15:56:38.997Z,23.50
2022-09-30T16:01:46.569Z,23.50
2022-09-30T16:06:54.250Z,23.40
2022-09-30T16:12:08.807Z,23.40
2022-09-30T16:17:19.961Z,23.30
2022-09-30T16:22:36.174Z,23.20
2022-09-30T16:27:40.413Z,23.30
2022-09-30T16:32:47.917Z,23.20
2022-09-30T16:37:52.324Z,23.20
2022-09-30T16:42:56.031Z,23.20
2022-09-30T16:48:02.911Z,23.10
2022-09-30T16:53:06.444Z,23.10
2022-09-30T16:58:13.416Z,23.10
2022-09-30T17:03:21.670Z,23.00
2022-09-30T17:08:25.057Z,23.00
2022-09-30T17:13:29.237Z,23.00
2022-09-30T17:18:34.742Z,23.00
2022-09-30T17:23:38.064Z,22.90
2022-09-30T17:28:41.433Z,22.90
2022-09-30T17:33:46.381Z,22.90
2022-09-30T17:38:55.083Z,22.80
2022-09-30T17:44:02.485Z,22.80
2022-09-30T17:49:09.144Z,22.80
2022-09-30T17:54:13.192Z,22.80
2022-09-30T17:59:17.684Z,22.80
2022-09-30T18:04:22.779Z,22.70
2022-09-30T18:09:26.350Z,22.70
2022-09-30T18:14:35.205Z,22.70
2022-09-30T18:19:40.478Z,22.70
2022-09-30T18:25:01.499Z,22.70
2022-09-30T18:30:06.581Z,22.70
2022-09-30T18:35:13.331Z,22.70
2022-09-30T18:40:18.137Z,22.70
2022-09-30T18:45:24.019Z,22.60
2022-09-30T18:50:30.659Z,22.60
2022-09-30T18:55:34.579Z,22.60
2022-09-30T19:00:39.995Z,22.60
2022-09-30T19:05:46.257Z,22.60
2022-09-30T19:10:50.753Z,22.50
2022-09-30T19:15:56.619Z,22.50
2022-09-30T19:21:07.418Z,22.50
2022-09-30T19:26:11.789Z,22.50
2022-09-30T19:31:21.623Z,22.50
2022-09-30T19:36:28.727Z,22.40
2022-09-30T19:41:33.232Z,22.40
2022-09-30T19:46:37.483Z,22.40
2022-09-30T19:51:43.983Z,22.40
2022-09-30T19:56:48.608Z,22.40
2022-09-30T20:01:55.414Z,22.30
2022-09-30T20:07:02.402Z,22.30
2022-09-30T20:12:10.985Z,22.30
2022-09-30T20:17:14.565Z,22.30
2022-09-30T20:22:19.559Z,22.30
2022-09-30T20:27:23.144Z,22.20
2022-09-30T20:32:31.119Z,22.20
2022-09-30T20:37:36.182Z,22.20
2022-09-30T20:42:40.256Z,22.10
2022-09-30T20:47:47.810Z,22.10
2022-09-30T20:52:54.818Z,22.10
2022-09-30T20:57:58.115Z,22.10
2022-09-30T21:03:01.387Z,22.00
2022-09-30T21:08:07.448Z,22.00
2022-09-30T21:13:11.536Z,22.00
2022-09-30T21:18:14.786Z,22.00
2022-09-30T21:23:19.831Z,21.90
2022-09-30T21:28:24.711Z,21.90
2022-09-30T21:33:28.029Z,21.90
2022-09-30T21:38:34.239Z,21.80
2022-09-30T21:43:39.027Z,21.80
2022-09-30T21:48:43.075Z,21.70
2022-09-30T21:53:48.846Z,21.60
2022-09-30T21:58:52.097Z,21.60
2022-09-30T22:03:55.307Z,21.60
2022-09-30T22:09:01.520Z,21.60
2022-09-30T22:14:04.961Z,21.50
2022-09-30T22:19:10.064Z,21.50
2022-09-30T22:24:14.781Z,21.50
2022-09-30T22:29:18.130Z,21.40
2022-09-30T22:34:38.919Z,21.40
2022-09-30T22:39:43.542Z,21.40
2022-09-30T22:44:47.589Z,21.40
2022-09-30T22:49:51.052Z,21.30
2022-09-30T22:54:55.728Z,21.30
2022-09-30T22:59:59.862Z,21.30
2022-09-30T23:05:03.324Z,21.20
2022-09-30T23:10:10.561Z,21.20
2022-09-30T23:15:13.805Z,21.20
2022-09-30T23:20:17.102Z,21.10
2022-09-30T23:25:21.804Z,21.10
2022-09-30T23:30:25.388Z,21.10
2022-09-30T23:35:28.756Z,21.00
2022-09-30T23:40:33.776Z,21.00
2022-09-30T23:45:37.143Z,20.90
2022-09-30T23:50:41.189Z,20.90
2022-09-30T23:55:55.247Z,20.90
